sensor_id;sensor_type;location;lat;lon;timestamp;pressure;altitude;pressure_sealevel;temperature;humidity
60099;BME280;62818;49.394;8.686;2022-10-12T00:00:23;101082.78;;;12.33;97.58
60099;BME280;62818;49.394;8.686;2022-10-12T00:01:24;101076.44;;;12.42;96.26
60099;BME280;62818;49.394;8.686;2022-10-12T00:02:25;101082.75;;;12.41;96.85
60099;BME280;62818;49.394;8.686;2022-10-12T00:03:25;101079.09;;;12.34;96.35
60099;BME280;62818;49.394;8.686;2022-10-12T00:04:26;101078.53;;;11.92;99.09
60099;BME280;62818;49.394;8.686;2022-10-12T00:05:27;101075.63;;;12.25;98.28
60099;BME280;62818;49.394;8.686;2022-10-12T00:06:28;101072.13;;;12.41;99.05
60099;BME280;62818;49.394;8.686;2022-10-12T00:07:31;101076.97;;;12.29;97.15
60099;BME280;62818;49.394;8.686;2022-10-12T00:08:33;101074.53;;;11.96;99.07
60099;BME280;62818;49.394;8.686;2022-10-12T00:09:37;101076.97;;;12.29;98.09
60099;BME280;62818;49.394;8.686;2022-10-12T00:10:40;101080.13;;;12.33;98.30
60099;BME280;62818;49.394;8.686;2022-10-12T00:11:46;101077.44;;;12.49;96.75
60099;BME280;62818;49.394;8.686;2022-10-12T00:12:49;101076.31;;;12.35;97.02
60099;BME280;62818;49.394;8.686;2022-10-12T00:13:53;101075.78;;;12.40;96.91
60099;BME280;62818;49.394;8.686;2022-10-12T00:14:57;101074.84;;;12.09;98.59
60099;BME280;62818;49.394;8.686;2022-10-12T00:16:06;101087.09;;;11.61;100.00
60099;BME280;62818;49.394;8.686;2022-10-12T00:17:08;101076.16;;;11.56;100.00
60099;BME280;62818;49.394;8.686;2022-10-12T00:18:09;101076.84;;;11.99;100.00
60099;BME280;62818;49.394;8.686;2022-10-12T00:19:11;101077.00;;;11.97;98.68
60099;BME280;62818;49.394;8.686;2022-10-12T00:20:12;101082.81;;;12.01;98.17
60099;BME280;62818;49.394;8.686;2022-10-12T00:21:14;101076.53;;;11.94;99.57
60099;BME280;62818;49.394;8.686;2022-10-12T00:22:16;101075.00;;;12.15;98.55
60099;BME280;62818;49.394;8.686;2022-10-12T00:23:16;101085.47;;;11.93;98.40
60099;BME280;62818;49.394;8.686;2022-10-12T00:24:17;101079.13;;;11.53;100.00
60099;BME280;62818;49.394;8.686;2022-10-12T00:25:20;101082.31;;;11.81;100.00
60099;BME280;62818;49.394;8.686;2022-10-12T00:26:21;101080.44;;;12.30;100.00
60099;BME280;62818;49.394;8.686;2022-10-12T00:27:23;101083.16;;;11.81;99.82
60099;BME280;62818;49.394;8.686;2022-10-12T00:28:24;101082.78;;;11.44;100.00
60099;BME280;62818;49.394;8.686;2022-10-12T00:29:24;101078.84;;;11.97;100.00
60099;BME280;62818;49.394;8.686;2022-10-12T00:30:27;101083.84;;;11.75;100.00
60099;BME280;62818;49.394;8.686;2022-10-12T00:31:31;101093.78;;;11.73;100.00
60099;BME280;62818;49.394;8.686;2022-10-12T00:32:33;101086.47;;;12.00;99.69
60099;BME280;62818;49.394;8.686;2022-10-12T00:33:34;101084.16;;;12.05;100.00
60099;BME280;62818;49.394;8.686;2022-10-12T00:34:36;101080.81;;;12.19;99.27
60099;BME280;62818;49.394;8.686;2022-10-12T00:35:37;101088.44;;;11.49;100.00
60099;BME280;62818;49.394;8.686;2022-10-12T00:36:37;101091.34;;;11.22;100.00
60099;BME280;62818;49.394;8.686;2022-10-12T00:37:38;101090.09;;;11.66;100.00
60099;BME280;62818;49.394;8.686;2022-10-12T00:38:38;101088.13;;;12.25;100.00
60099;BME280;62818;49.394;8.686;2022-10-12T00:39:39;101084.97;;;12.05;100.00
60099;BME280;62818;49.394;8.686;2022-10-12T00:40:39;101094.13;;;11.78;100.00
60099;BME280;62818;49.394;8.686;2022-10-12T00:41:42;101080.84;;;12.03;100.00
60099;BME280;62818;49.394;8.686;2022-10-12T00:42:43;101083.81;;;11.83;100.00
60099;BME280;62818;49.394;8.686;2022-10-12T00:43:49;101094.75;;;11.64;100.00
60099;BME280;62818;49.394;8.686;2022-10-12T00:44:55;101084.81;;;12.07;100.00
60099;BME280;62818;49.394;8.686;2022-10-12T00:45:56;101095.41;;;12.31;99.07
60099;BME280;62818;49.394;8.686;2022-10-12T00:47:14;101087.75;;;12.36;98.40
60099;BME280;62818;49.394;8.686;2022-10-12T00:48:26;101094.44;;;11.83;99.23
60099;BME280;62818;49.394;8.686;2022-10-12T00:49:27;101089.31;;;11.82;100.00
60099;BME280;62818;49.394;8.686;2022-10-12T00:50:33;101090.47;;;11.79;100.00
60099;BME280;62818;49.394;8.686;2022-10-12T00:51:36;101086.31;;;12.09;99.58
60099;BME280;62818;49.394;8.686;2022-10-12T00:52:59;101091.88;;;12.38;97.70
60099;BME280;62818;49.394;8.686;2022-10-12T00:54:12;101096.44;;;12.06;98.36
60099;BME280;62818;49.394;8.686;2022-10-12T00:55:18;101092.75;;;12.23;99.02
60099;BME280;62818;49.394;8.686;2022-10-12T00:56:24;101089.63;;;12.03;97.51
60099;BME280;62818;49.394;8.686;2022-10-12T00:57:29;101094.13;;;11.78;98.03
60099;BME280;62818;49.394;8.686;2022-10-12T00:58:32;101090.78;;;12.09;99.18
60099;BME280;62818;49.394;8.686;2022-10-12T00:59:45;101098.78;;;11.84;96.46
60099;BME280;62818;49.394;8.686;2022-10-12T01:00:54;101088.47;;;12.14;98.90
60099;BME280;62818;49.394;8.686;2022-10-12T01:01:57;101091.78;;;12.00;95.87
60099;BME280;62818;49.394;8.686;2022-10-12T01:03:00;101091.13;;;11.73;98.12
60099;BME280;62818;49.394;8.686;2022-10-12T01:04:04;101098.03;;;12.39;97.75
60099;BME280;62818;49.394;8.686;2022-10-12T01:05:07;101086.78;;;12.29;94.57
60099;BME280;62818;49.394;8.686;2022-10-12T01:06:11;101100.75;;;11.74;96.25
60099;BME280;62818;49.394;8.686;2022-10-12T01:07:13;101090.78;;;11.76;96.65
60099;BME280;62818;49.394;8.686;2022-10-12T01:08:14;101100.44;;;11.69;97.11
60099;BME280;62818;49.394;8.686;2022-10-12T01:09:18;101089.47;;;11.72;96.69
60099;BME280;62818;49.394;8.686;2022-10-12T01:10:22;101091.28;;;12.12;96.90
60099;BME280;62818;49.394;8.686;2022-10-12T01:11:23;101088.81;;;11.70;97.45
60099;BME280;62818;49.394;8.686;2022-10-12T01:12:25;101091.63;;;11.77;97.18
60099;BME280;62818;49.394;8.686;2022-10-12T01:13:32;101093.09;;;12.20;97.23
60099;BME280;62818;49.394;8.686;2022-10-12T01:14:33;101087.00;;;11.87;96.10
60099;BME280;62818;49.394;8.686;2022-10-12T01:15:43;101092.41;;;12.42;96.53
60099;BME280;62818;49.394;8.686;2022-10-12T01:18:56;101091.31;;;11.80;97.93
60099;BME280;62818;49.394;8.686;2022-10-12T01:21:38;101095.94;;;11.70;99.29
60099;BME280;62818;49.394;8.686;2022-10-12T01:30:37;101092.28;;;11.95;94.57
60099;BME280;62818;49.394;8.686;2022-10-12T01:33:16;101101.28;;;11.78;96.36
60099;BME280;62818;49.394;8.686;2022-10-12T01:34:52;101093.13;;;11.71;94.69
60099;BME280;62818;49.394;8.686;2022-10-12T01:40:40;101085.31;;;12.10;93.32
60099;BME280;62818;49.394;8.686;2022-10-12T01:41:52;101085.31;;;11.86;94.36
60099;BME280;62818;49.394;8.686;2022-10-12T01:42:56;101083.66;;;11.69;95.98
60099;BME280;62818;49.394;8.686;2022-10-12T01:43:57;101084.78;;;11.66;95.67
60099;BME280;62818;49.394;8.686;2022-10-12T01:45:08;101085.47;;;12.01;95.18
60099;BME280;62818;49.394;8.686;2022-10-12T01:47:14;101089.81;;;12.02;94.22
60099;BME280;62818;49.394;8.686;2022-10-12T01:48:15;101079.84;;;11.96;93.07
60099;BME280;62818;49.394;8.686;2022-10-12T01:49:22;101089.16;;;11.75;93.61
60099;BME280;62818;49.394;8.686;2022-10-12T01:50:55;101079.50;;;11.99;93.76
60099;BME280;62818;49.394;8.686;2022-10-12T01:54:54;101084.50;;;11.77;93.52
60099;BME280;62818;49.394;8.686;2022-10-12T01:59:13;101079.00;;;11.63;94.32
60099;BME280;62818;49.394;8.686;2022-10-12T02:00:18;101076.47;;;11.61;95.09
60099;BME280;62818;49.394;8.686;2022-10-12T02:05:26;101074.53;;;11.71;96.25
60099;BME280;62818;49.394;8.686;2022-10-12T02:06:44;101070.16;;;12.19;94.25
60099;BME280;62818;49.394;8.686;2022-10-12T02:09:22;101071.53;;;11.90;93.42
60099;BME280;62818;49.394;8.686;2022-10-12T02:10:38;101071.53;;;11.58;93.24
60099;BME280;62818;49.394;8.686;2022-10-12T02:11:45;101070.50;;;11.51;93.76
60099;BME280;62818;49.394;8.686;2022-10-12T02:12:51;101072.78;;;11.30;95.01
60099;BME280;62818;49.394;8.686;2022-10-12T02:14:08;101066.06;;;10.94;96.21
60099;BME280;62818;49.394;8.686;2022-10-12T02:15:16;101065.88;;;10.87;97.22
60099;BME280;62818;49.394;8.686;2022-10-12T02:16:19;101071.50;;;10.84;96.85
60099;BME280;62818;49.394;8.686;2022-10-12T02:17:28;101068.84;;;10.76;97.44
60099;BME280;62818;49.394;8.686;2022-10-12T02:18:34;101069.03;;;10.83;97.13
60099;BME280;62818;49.394;8.686;2022-10-12T02:19:43;101070.66;;;10.76;97.57
60099;BME280;62818;49.394;8.686;2022-10-12T02:20:53;101067.31;;;10.66;97.00
60099;BME280;62818;49.394;8.686;2022-10-12T02:22:00;101063.22;;;10.79;98.12
60099;BME280;62818;49.394;8.686;2022-10-12T02:23:11;101066.94;;;10.61;97.70
60099;BME280;62818;49.394;8.686;2022-10-12T02:24:16;101073.00;;;10.79;97.83
60099;BME280;62818;49.394;8.686;2022-10-12T02:25:21;101065.72;;;10.89;96.53
60099;BME280;62818;49.394;8.686;2022-10-12T02:26:28;101065.47;;;11.24;95.51
60099;BME280;62818;49.394;8.686;2022-10-12T02:27:33;101061.00;;;11.16;93.60
60099;BME280;62818;49.394;8.686;2022-10-12T02:28:38;101069.41;;;11.04;94.58
60099;BME280;62818;49.394;8.686;2022-10-12T02:29:45;101071.97;;;11.30;93.87
60099;BME280;62818;49.394;8.686;2022-10-12T02:30:58;101065.78;;;11.13;94.24
60099;BME280;62818;49.394;8.686;2022-10-12T02:35:36;101064.56;;;10.83;95.12
60099;BME280;62818;49.394;8.686;2022-10-12T02:38:19;101075.91;;;11.09;94.22
60099;BME280;62818;49.394;8.686;2022-10-12T02:39:44;101074.22;;;10.92;94.12
60099;BME280;62818;49.394;8.686;2022-10-12T02:40:51;101073.81;;;11.37;94.10
60099;BME280;62818;49.394;8.686;2022-10-12T02:42:05;101074.72;;;11.04;94.94
60099;BME280;62818;49.394;8.686;2022-10-12T02:43:11;101067.47;;;11.30;96.56
60099;BME280;62818;49.394;8.686;2022-10-12T02:44:22;101067.50;;;11.38;94.22
60099;BME280;62818;49.394;8.686;2022-10-12T02:45:32;101070.47;;;11.19;92.85
60099;BME280;62818;49.394;8.686;2022-10-12T02:46:35;101066.75;;;11.04;93.57
60099;BME280;62818;49.394;8.686;2022-10-12T02:47:36;101072.66;;;10.82;94.61
60099;BME280;62818;49.394;8.686;2022-10-12T02:48:39;101060.50;;;10.71;96.07
60099;BME280;62818;49.394;8.686;2022-10-12T02:49:42;101071.56;;;10.59;96.97
60099;BME280;62818;49.394;8.686;2022-10-12T02:50:48;101066.16;;;10.68;96.63
60099;BME280;62818;49.394;8.686;2022-10-12T02:51:52;101065.78;;;10.63;96.91
60099;BME280;62818;49.394;8.686;2022-10-12T02:52:55;101067.88;;;10.52;97.56
60099;BME280;62818;49.394;8.686;2022-10-12T02:53:56;101066.53;;;10.81;96.29
60099;BME280;62818;49.394;8.686;2022-10-12T02:54:57;101061.25;;;10.97;95.56
60099;BME280;62818;49.394;8.686;2022-10-12T02:56:07;101065.50;;;10.74;95.73
60099;BME280;62818;49.394;8.686;2022-10-12T02:57:13;101058.53;;;10.73;95.77
60099;BME280;62818;49.394;8.686;2022-10-12T02:58:17;101058.41;;;10.83;95.50
60099;BME280;62818;49.394;8.686;2022-10-12T02:59:21;101057.56;;;10.82;95.29
60099;BME280;62818;49.394;8.686;2022-10-12T03:00:24;101062.03;;;10.74;96.53
60099;BME280;62818;49.394;8.686;2022-10-12T03:01:25;101054.25;;;10.47;97.01
60099;BME280;62818;49.394;8.686;2022-10-12T03:02:25;101063.97;;;10.64;97.46
60099;BME280;62818;49.394;8.686;2022-10-12T03:03:26;101052.72;;;10.70;96.71
60099;BME280;62818;49.394;8.686;2022-10-12T03:04:27;101060.47;;;10.97;95.81
60099;BME280;62818;49.394;8.686;2022-10-12T03:05:30;101055.34;;;11.03;95.17
60099;BME280;62818;49.394;8.686;2022-10-12T03:06:30;101054.81;;;11.00;93.97
60099;BME280;62818;49.394;8.686;2022-10-12T03:07:33;101056.78;;;10.90;95.16
60099;BME280;62818;49.394;8.686;2022-10-12T03:08:34;101052.69;;;11.19;95.53
60099;BME280;62818;49.394;8.686;2022-10-12T03:11:03;101050.34;;;11.00;94.25
60099;BME280;62818;49.394;8.686;2022-10-12T03:12:05;101049.19;;;11.03;93.18
60099;BME280;62818;49.394;8.686;2022-10-12T03:13:06;101048.19;;;11.04;93.50
60099;BME280;62818;49.394;8.686;2022-10-12T03:14:10;101052.81;;;11.02;93.30
60099;BME280;62818;49.394;8.686;2022-10-12T03:15:11;101050.81;;;10.88;93.03
60099;BME280;62818;49.394;8.686;2022-10-12T03:16:12;101058.22;;;10.76;93.69
60099;BME280;62818;49.394;8.686;2022-10-12T03:17:12;101054.31;;;10.55;95.05
60099;BME280;62818;49.394;8.686;2022-10-12T03:18:17;101044.09;;;10.68;95.53
60099;BME280;62818;49.394;8.686;2022-10-12T03:19:18;101050.66;;;10.97;95.52
60099;BME280;62818;49.394;8.686;2022-10-12T03:20:21;101051.41;;;10.66;94.36
60099;BME280;62818;49.394;8.686;2022-10-12T03:21:24;101052.63;;;10.87;93.53
60099;BME280;62818;49.394;8.686;2022-10-12T03:22:24;101043.78;;;10.71;94.15
60099;BME280;62818;49.394;8.686;2022-10-12T03:23:28;101051.03;;;10.61;94.70
60099;BME280;62818;49.394;8.686;2022-10-12T03:24:30;101046.69;;;10.60;94.86
60099;BME280;62818;49.394;8.686;2022-10-12T03:25:33;101048.97;;;10.47;94.60
60099;BME280;62818;49.394;8.686;2022-10-12T03:26:34;101051.59;;;10.38;95.42
60099;BME280;62818;49.394;8.686;2022-10-12T03:27:34;101050.94;;;10.44;95.62
60099;BME280;62818;49.394;8.686;2022-10-12T03:28:37;101051.31;;;10.50;95.38
60099;BME280;62818;49.394;8.686;2022-10-12T03:29:40;101041.66;;;10.74;95.28
60099;BME280;62818;49.394;8.686;2022-10-12T03:30:42;101056.53;;;10.67;94.63
60099;BME280;62818;49.394;8.686;2022-10-12T03:31:42;101052.00;;;10.60;94.89
60099;BME280;62818;49.394;8.686;2022-10-12T03:32:43;101053.69;;;10.61;95.03
60099;BME280;62818;49.394;8.686;2022-10-12T03:33:44;101051.63;;;10.47;96.37
60099;BME280;62818;49.394;8.686;2022-10-12T03:34:44;101052.19;;;10.58;95.22
60099;BME280;62818;49.394;8.686;2022-10-12T03:35:45;101049.16;;;10.53;95.77
60099;BME280;62818;49.394;8.686;2022-10-12T03:36:46;101050.38;;;10.59;96.40
60099;BME280;62818;49.394;8.686;2022-10-12T03:37:49;101051.06;;;10.69;95.50
60099;BME280;62818;49.394;8.686;2022-10-12T03:38:53;101046.47;;;10.79;94.93
60099;BME280;62818;49.394;8.686;2022-10-12T03:39:53;101052.06;;;10.68;95.27
60099;BME280;62818;49.394;8.686;2022-10-12T03:40:54;101051.03;;;10.61;96.02
60099;BME280;62818;49.394;8.686;2022-10-12T03:41:54;101054.00;;;10.58;96.19
60099;BME280;62818;49.394;8.686;2022-10-12T03:42:57;101049.34;;;10.60;96.35
60099;BME280;62818;49.394;8.686;2022-10-12T03:44:00;101051.69;;;10.63;96.50
60099;BME280;62818;49.394;8.686;2022-10-12T03:45:01;101053.03;;;10.67;95.97
60099;BME280;62818;49.394;8.686;2022-10-12T03:46:01;101059.63;;;10.55;96.14
60099;BME280;62818;49.394;8.686;2022-10-12T03:47:04;101056.97;;;10.55;95.49
60099;BME280;62818;49.394;8.686;2022-10-12T03:48:05;101058.81;;;10.62;94.71
60099;BME280;62818;49.394;8.686;2022-10-12T03:49:07;101058.59;;;10.48;95.79
60099;BME280;62818;49.394;8.686;2022-10-12T03:50:12;101051.34;;;10.24;96.51
60099;BME280;62818;49.394;8.686;2022-10-12T03:51:13;101053.56;;;10.36;96.79
60099;BME280;62818;49.394;8.686;2022-10-12T03:52:13;101063.53;;;10.42;96.23
60099;BME280;62818;49.394;8.686;2022-10-12T03:53:15;101056.59;;;10.41;96.42
60099;BME280;62818;49.394;8.686;2022-10-12T03:54:16;101052.53;;;10.29;96.88
60099;BME280;62818;49.394;8.686;2022-10-12T03:55:16;101055.03;;;10.31;97.37
60099;BME280;62818;49.394;8.686;2022-10-12T03:56:17;101056.47;;;10.25;96.83
60099;BME280;62818;49.394;8.686;2022-10-12T03:57:19;101055.16;;;10.55;96.93
60099;BME280;62818;49.394;8.686;2022-10-12T03:58:22;101056.88;;;10.38;95.21
60099;BME280;62818;49.394;8.686;2022-10-12T03:59:23;101063.84;;;10.14;96.43
60099;BME280;62818;49.394;8.686;2022-10-12T04:00:24;101059.63;;;10.03;97.65
60099;BME280;62818;49.394;8.686;2022-10-12T04:01:25;101054.25;;;10.13;98.29
60099;BME280;62818;49.394;8.686;2022-10-12T04:02:25;101061.16;;;9.88;97.78
60099;BME280;62818;49.394;8.686;2022-10-12T04:03:30;101059.69;;;9.94;98.90
60099;BME280;62818;49.394;8.686;2022-10-12T04:04:33;101058.91;;;9.93;98.04
60099;BME280;62818;49.394;8.686;2022-10-12T04:05:34;101062.69;;;9.91;98.96
60099;BME280;62818;49.394;8.686;2022-10-12T04:06:35;101065.63;;;9.88;98.91
60099;BME280;62818;49.394;8.686;2022-10-12T04:07:35;101060.03;;;9.91;98.74
60099;BME280;62818;49.394;8.686;2022-10-12T04:08:40;101059.19;;;9.90;98.98
60099;BME280;62818;49.394;8.686;2022-10-12T04:09:43;101058.16;;;9.83;99.57
60099;BME280;62818;49.394;8.686;2022-10-12T04:10:44;101063.00;;;10.13;98.96
60099;BME280;62818;49.394;8.686;2022-10-12T04:11:45;101060.53;;;9.94;97.92
60099;BME280;62818;49.394;8.686;2022-10-12T04:12:50;101060.78;;;9.83;98.82
60099;BME280;62818;49.394;8.686;2022-10-12T04:13:51;101065.22;;;10.00;98.44
60099;BME280;62818;49.394;8.686;2022-10-12T04:14:51;101070.56;;;10.26;97.84
60099;BME280;62818;49.394;8.686;2022-10-12T04:15:52;101066.66;;;10.12;96.95
60099;BME280;62818;49.394;8.686;2022-10-12T04:16:55;101065.53;;;9.97;97.97
60099;BME280;62818;49.394;8.686;2022-10-12T04:17:55;101073.06;;;9.84;98.45
60099;BME280;62818;49.394;8.686;2022-10-12T04:18:56;101069.13;;;9.70;99.76
60099;BME280;62818;49.394;8.686;2022-10-12T04:19:56;101071.03;;;9.60;99.76
60099;BME280;62818;49.394;8.686;2022-10-12T04:20:58;101071.97;;;9.51;100.00
60099;BME280;62818;49.394;8.686;2022-10-12T04:22:04;101071.84;;;9.61;100.00
60099;BME280;62818;49.394;8.686;2022-10-12T04:23:07;101069.09;;;9.45;100.00
60099;BME280;62818;49.394;8.686;2022-10-12T04:24:08;101073.84;;;9.59;100.00
60099;BME280;62818;49.394;8.686;2022-10-12T04:25:10;101072.75;;;9.52;100.00
60099;BME280;62818;49.394;8.686;2022-10-12T04:26:11;101067.34;;;9.53;100.00
60099;BME280;62818;49.394;8.686;2022-10-12T04:27:11;101074.50;;;9.61;99.86
60099;BME280;62818;49.394;8.686;2022-10-12T04:28:16;101071.56;;;9.64;99.52
60099;BME280;62818;49.394;8.686;2022-10-12T04:29:17;101072.09;;;9.67;99.61
60099;BME280;62818;49.394;8.686;2022-10-12T04:30:21;101068.53;;;9.59;99.71
60099;BME280;62818;49.394;8.686;2022-10-12T04:31:21;101075.13;;;9.55;99.69
60099;BME280;62818;49.394;8.686;2022-10-12T04:32:22;101069.88;;;9.63;99.53
60099;BME280;62818;49.394;8.686;2022-10-12T04:33:22;101066.03;;;9.75;98.96
60099;BME280;62818;49.394;8.686;2022-10-12T04:34:25;101072.72;;;9.87;98.25
60099;BME280;62818;49.394;8.686;2022-10-12T04:35:26;101076.84;;;9.82;98.80
60099;BME280;62818;49.394;8.686;2022-10-12T04:36:26;101079.66;;;10.06;96.85
60099;BME280;62818;49.394;8.686;2022-10-12T04:37:29;101075.16;;;9.81;97.40
60099;BME280;62818;49.394;8.686;2022-10-12T04:38:30;101082.66;;;9.85;97.70
60099;BME280;62818;49.394;8.686;2022-10-12T04:39:32;101082.78;;;9.58;98.78
60099;BME280;62818;49.394;8.686;2022-10-12T04:40:35;101083.13;;;9.45;99.65
60099;BME280;62818;49.394;8.686;2022-10-12T04:41:35;101090.31;;;9.53;99.72
60099;BME280;62818;49.394;8.686;2022-10-12T04:42:43;101085.25;;;9.42;100.00
60099;BME280;62818;49.394;8.686;2022-10-12T04:43:43;101082.69;;;9.50;100.00
60099;BME280;62818;49.394;8.686;2022-10-12T04:44:44;101084.19;;;9.70;98.53
60099;BME280;62818;49.394;8.686;2022-10-12T04:45:53;101093.72;;;9.63;98.77
60099;BME280;62818;49.394;8.686;2022-10-12T04:46:59;101089.53;;;9.60;99.35
60099;BME280;62818;49.394;8.686;2022-10-12T04:48:02;101089.66;;;9.51;99.78
60099;BME280;62818;49.394;8.686;2022-10-12T04:49:03;101089.53;;;9.60;99.69
60099;BME280;62818;49.394;8.686;2022-10-12T04:50:04;101088.41;;;9.63;99.51
60099;BME280;62818;49.394;8.686;2022-10-12T04:51:08;101076.50;;;10.02;99.04
60099;BME280;62818;49.394;8.686;2022-10-12T04:52:09;101087.34;;;10.34;96.18
60099;BME280;62818;49.394;8.686;2022-10-12T04:53:12;101079.16;;;10.02;96.80
60099;BME280;62818;49.394;8.686;2022-10-12T04:54:12;101080.75;;;9.95;96.13
60099;BME280;62818;49.394;8.686;2022-10-12T04:55:15;101076.75;;;10.34;97.15
60099;BME280;62818;49.394;8.686;2022-10-12T04:56:18;101077.47;;;10.01;96.85
60099;BME280;62818;49.394;8.686;2022-10-12T04:57:19;101082.41;;;9.96;96.05
60099;BME280;62818;49.394;8.686;2022-10-12T04:58:21;101085.81;;;10.06;95.70
60099;BME280;62818;49.394;8.686;2022-10-12T04:59:27;101090.34;;;9.96;95.66
60099;BME280;62818;49.394;8.686;2022-10-12T05:00:27;101085.31;;;10.28;95.30
60099;BME280;62818;49.394;8.686;2022-10-12T05:01:28;101078.69;;;10.58;94.83
60099;BME280;62818;49.394;8.686;2022-10-12T05:02:28;101086.19;;;10.71;95.08
60099;BME280;62818;49.394;8.686;2022-10-12T05:03:31;101082.16;;;10.59;95.18
60099;BME280;62818;49.394;8.686;2022-10-12T05:04:31;101081.84;;;10.10;94.91
60099;BME280;62818;49.394;8.686;2022-10-12T05:05:32;101085.97;;;9.87;96.26
60099;BME280;62818;49.394;8.686;2022-10-12T05:06:37;101083.13;;;10.50;95.07
60099;BME280;62818;49.394;8.686;2022-10-12T05:07:38;101085.13;;;10.04;95.67
60099;BME280;62818;49.394;8.686;2022-10-12T05:08:38;101085.25;;;10.20;96.55
60099;BME280;62818;49.394;8.686;2022-10-12T05:09:39;101089.97;;;10.60;94.48
60099;BME280;62818;49.394;8.686;2022-10-12T05:10:42;101089.50;;;10.31;94.64
60099;BME280;62818;49.394;8.686;2022-10-12T05:11:43;101085.22;;;10.12;95.68
60099;BME280;62818;49.394;8.686;2022-10-12T05:12:44;101084.47;;;10.54;94.63
60099;BME280;62818;49.394;8.686;2022-10-12T05:13:44;101074.81;;;10.19;95.58
60099;BME280;62818;49.394;8.686;2022-10-12T05:14:47;101073.78;;;10.37;94.25
60099;BME280;62818;49.394;8.686;2022-10-12T05:15:47;101069.34;;;10.20;94.00
60099;BME280;62818;49.394;8.686;2022-10-12T05:16:48;101073.63;;;9.96;95.39
60099;BME280;62818;49.394;8.686;2022-10-12T05:17:51;101077.81;;;9.81;96.55
60099;BME280;62818;49.394;8.686;2022-10-12T05:18:52;101077.19;;;10.04;96.48
60099;BME280;62818;49.394;8.686;2022-10-12T05:19:55;101072.13;;;10.36;95.81
60099;BME280;62818;49.394;8.686;2022-10-12T05:20:55;101079.03;;;10.63;93.91
60099;BME280;62818;49.394;8.686;2022-10-12T05:21:58;101075.28;;;10.14;94.40
60099;BME280;62818;49.394;8.686;2022-10-12T05:22:58;101084.63;;;9.83;96.85
60099;BME280;62818;49.394;8.686;2022-10-12T05:23:59;101078.34;;;10.27;96.38
60099;BME280;62818;49.394;8.686;2022-10-12T05:25:00;101081.63;;;10.21;96.07
60099;BME280;62818;49.394;8.686;2022-10-12T05:26:03;101077.53;;;10.09;95.52
60099;BME280;62818;49.394;8.686;2022-10-12T05:27:06;101074.88;;;10.09;97.14
60099;BME280;62818;49.394;8.686;2022-10-12T05:28:06;101076.25;;;10.13;97.57
60099;BME280;62818;49.394;8.686;2022-10-12T05:29:10;101075.19;;;10.58;96.06
60099;BME280;62818;49.394;8.686;2022-10-12T05:30:11;101068.91;;;10.59;94.25
60099;BME280;62818;49.394;8.686;2022-10-12T05:31:11;101075.66;;;10.19;94.89
60099;BME280;62818;49.394;8.686;2022-10-12T05:32:12;101074.38;;;10.06;96.83
60099;BME280;62818;49.394;8.686;2022-10-12T05:33:16;101074.75;;;10.36;96.18
60099;BME280;62818;49.394;8.686;2022-10-12T05:34:21;101073.25;;;10.08;98.09
60099;BME280;62818;49.394;8.686;2022-10-12T05:35:24;101075.53;;;10.55;95.21
60099;BME280;62818;49.394;8.686;2022-10-12T05:36:25;101078.94;;;10.73;94.23
60099;BME280;62818;49.394;8.686;2022-10-12T05:37:28;101082.00;;;10.94;93.75
60099;BME280;62818;49.394;8.686;2022-10-12T05:38:28;101082.56;;;10.72;92.11
60099;BME280;62818;49.394;8.686;2022-10-12T05:39:29;101082.59;;;10.20;94.97
60099;BME280;62818;49.394;8.686;2022-10-12T05:40:29;101081.44;;;9.97;96.66
60099;BME280;62818;49.394;8.686;2022-10-12T05:41:30;101081.25;;;10.16;96.46
60099;BME280;62818;49.394;8.686;2022-10-12T05:42:35;101078.88;;;10.31;94.92
60099;BME280;62818;49.394;8.686;2022-10-12T05:43:35;101083.63;;;10.02;94.70
60099;BME280;62818;49.394;8.686;2022-10-12T05:44:36;101080.09;;;9.93;96.90
60099;BME280;62818;49.394;8.686;2022-10-12T05:45:36;101083.06;;;9.98;97.14
60099;BME280;62818;49.394;8.686;2022-10-12T05:46:39;101079.91;;;10.12;97.08
60099;BME280;62818;49.394;8.686;2022-10-12T05:47:39;101079.16;;;10.02;97.43
60099;BME280;62818;49.394;8.686;2022-10-12T05:48:42;101092.03;;;9.97;96.70
60099;BME280;62818;49.394;8.686;2022-10-12T05:49:42;101084.00;;;9.89;96.86
60099;BME280;62818;49.394;8.686;2022-10-12T05:50:43;101090.91;;;9.82;98.18
60099;BME280;62818;49.394;8.686;2022-10-12T05:51:43;101080.19;;;10.09;97.07
60099;BME280;62818;49.394;8.686;2022-10-12T05:52:47;101083.69;;;9.92;97.76
60099;BME280;62818;49.394;8.686;2022-10-12T05:53:50;101087.41;;;10.17;95.51
60099;BME280;62818;49.394;8.686;2022-10-12T05:54:50;101095.97;;;9.93;95.68
60099;BME280;62818;49.394;8.686;2022-10-12T05:55:58;101090.53;;;9.77;97.62
60099;BME280;62818;49.394;8.686;2022-10-12T05:56:59;101096.22;;;9.64;98.02
60099;BME280;62818;49.394;8.686;2022-10-12T05:58:00;101094.38;;;9.65;98.76
60099;BME280;62818;49.394;8.686;2022-10-12T05:59:02;101097.47;;;9.78;98.58
60099;BME280;62818;49.394;8.686;2022-10-12T06:00:05;101100.06;;;9.70;98.85
60099;BME280;62818;49.394;8.686;2022-10-12T06:01:13;101103.84;;;9.67;98.45
60099;BME280;62818;49.394;8.686;2022-10-12T06:02:17;101105.38;;;9.52;98.92
60099;BME280;62818;49.394;8.686;2022-10-12T06:03:18;101099.84;;;9.81;98.95
60099;BME280;62818;49.394;8.686;2022-10-12T06:04:21;101099.59;;;9.92;98.81
60099;BME280;62818;49.394;8.686;2022-10-12T06:05:29;101107.47;;;9.84;97.55
60099;BME280;62818;49.394;8.686;2022-10-12T06:06:32;101100.81;;;9.98;97.29
60099;BME280;62818;49.394;8.686;2022-10-12T06:07:32;101102.00;;;10.03;96.42
60099;BME280;62818;49.394;8.686;2022-10-12T06:08:33;101100.34;;;10.46;94.82